Time;durP1;ratioP1;P1;durP2;ratioP2;P2;SDS_P1;SDS_P2;PMS_P1;PMS_P2;Temp;Humidity;BMP_temperature;BMP_pressure;BME280_temperature;BME280_humidity;BME280_pressure;Samples;Min_cycle;Max_cycle;Signal;HPM_P1;HPM_P2
2022/03/06 00:01:59;;;;;;;;;;;;;;;1.71;64.03;100321.22;6212519;23;19946;-82
2022/03/06 00:04:25;;;;;;;;;;;;;;;1.71;64.83;100326.69;6163401;23;19970;-80
2022/03/06 00:06:50;;;;;;;;;;;;;;;1.70;65.24;100325.16;6187612;23;19923;-80
2022/03/06 00:09:15;;;;;;;;;;;;;;;1.67;64.33;100325.88;6188038;23;19912;-80
2022/03/06 00:11:42;;;;;;;;;;;;;;;1.60;64.43;100328.50;6187922;23;19916;-81
2022/03/06 00:14:07;;;;;;;;;;;;;;;1.64;64.17;100326.63;6212772;23;19919;-81
2022/03/06 00:16:32;;;;;;;;;;;;;;;1.59;63.40;100330.44;6187576;23;19915;-81
2022/03/06 00:18:58;;;;;;;;;;;;;;;1.60;63.33;100321.09;6163027;23;19973;-81
2022/03/06 00:21:24;;;;;;;;;;;;;;;1.59;63.30;100330.44;6163179;23;19916;-80
2022/03/06 00:23:49;;;;;;;;;;;;;;;1.60;63.11;100332.03;6188060;23;19954;-82
2022/03/06 00:26:15;;;;;;;;;;;;;;;1.60;62.70;100332.03;6163138;23;19916;-82
2022/03/06 00:28:41;;;;;;;;;;;;;;;1.59;61.62;100324.19;6187898;23;19961;-82
2022/03/06 00:31:06;;;;;;;;;;;;;;;1.65;62.03;100322.72;6162780;23;20246;-82
2022/03/06 00:33:32;;;;;;;;;;;;;;;1.63;61.63;100325.03;6187616;23;19947;-82
2022/03/06 00:35:57;;;;;;;;;;;;;;;1.61;62.13;100322.69;6212612;23;19970;-82
2022/03/06 00:38:22;;;;;;;;;;;;;;;1.59;61.47;100319.50;6163008;23;19920;-82
2022/03/06 00:40:48;;;;;;;;;;;;;;;1.59;62.29;100319.50;6187884;23;19916;-82
2022/03/06 00:43:15;;;;;;;;;;;;;;;1.59;62.61;100321.47;6187406;23;19948;-82
2022/03/06 00:45:41;;;;;;;;;;;;;;;1.56;62.09;100323.00;6187518;23;20349;-82
2022/03/06 00:48:06;;;;;;;;;;;;;;;1.55;62.25;100320.63;6187152;23;19923;-82
2022/03/06 00:50:31;;;;;;;;;;;;;;;1.51;62.67;100320.56;6187768;23;19994;-82
2022/03/06 00:52:57;;;;;;;;;;;;;;;1.48;61.68;100318.59;6187251;23;20277;-82
2022/03/06 00:55:22;;;;;;;;;;;;;;;1.49;62.02;100328.38;6212709;23;19970;-82
2022/03/06 00:57:49;;;;;;;;;;;;;;;1.49;61.92;100319.38;6187453;23;19915;-82
2022/03/06 01:00:14;;;;;;;;;;;;;;;1.44;62.01;100317.75;6187976;23;20308;-81
2022/03/06 01:02:40;;;;;;;;;;;;;;;1.42;62.36;100315.38;6212332;23;19911;-82
2022/03/06 01:05:05;;;;;;;;;;;;;;;1.45;62.47;100318.53;6187268;23;19924;-82
2022/03/06 01:07:30;;;;;;;;;;;;;;;1.37;62.25;100312.19;6187369;23;20319;-82
2022/03/06 01:09:56;;;;;;;;;;;;;;;1.34;61.75;100307.44;6187254;23;19970;-82
2022/03/06 01:12:21;;;;;;;;;;;;;;;1.33;62.12;100305.88;6187557;23;19912;-82
2022/03/06 01:14:47;;;;;;;;;;;;;;;1.28;62.03;100303.44;6187360;23;19919;-82
2022/03/06 01:17:13;;;;;;;;;;;;;;;1.22;62.11;100302.97;6186838;23;19919;-82
2022/03/06 01:19:38;;;;;;;;;;;;;;;1.12;61.63;100305.56;6187593;23;20250;-80
2022/03/06 01:22:04;;;;;;;;;;;;;;;1.06;62.34;100304.28;6212222;23;20338;-81
2022/03/06 01:24:29;;;;;;;;;;;;;;;0.97;62.61;100298.28;6187514;23;19923;-80
2022/03/06 01:26:55;;;;;;;;;;;;;;;0.91;62.90;100290.41;6211865;23;19915;-80
2022/03/06 01:29:22;;;;;;;;;;;;;;;0.90;63.06;100299.75;6162493;23;19916;-81
2022/03/06 01:31:48;;;;;;;;;;;;;;;0.85;62.94;100302.78;6186898;23;19912;-81
2022/03/06 01:34:13;;;;;;;;;;;;;;;0.84;62.59;100301.22;6212247;23;20523;-80
2022/03/06 01:36:38;;;;;;;;;;;;;;;0.81;62.39;100295.69;6212373;23;20396;-81
2022/03/06 01:39:04;;;;;;;;;;;;;;;0.80;62.83;100299.56;6212164;23;19920;-81
2022/03/06 01:41:33;;;;;;;;;;;;;;;0.74;62.71;100290.09;6212502;23;19923;-80
2022/03/06 01:43:58;;;;;;;;;;;;;;;0.66;62.63;100291.94;6186634;23;20334;-80
2022/03/06 01:46:24;;;;;;;;;;;;;;;0.62;63.09;100298.47;6187134;23;19931;-80
2022/03/06 01:48:49;;;;;;;;;;;;;;;0.59;63.17;100291.00;6211846;23;19920;-81
2022/03/06 01:51:15;;;;;;;;;;;;;;;0.49;63.37;100295.13;6212067;23;19920;-81
2022/03/06 01:53:40;;;;;;;;;;;;;;;0.45;63.36;100300.53;6162002;23;20302;-81
2022/03/06 01:56:06;;;;;;;;;;;;;;;0.45;63.58;100294.28;6187003;23;19916;-80
2022/03/06 01:58:31;;;;;;;;;;;;;;;0.39;63.86;100306.66;6162167;23;19939;-81
2022/03/06 02:03:38;;;;;;;;;;;;;;;0.30;64.47;100297.91;6232556;22;20249;-87
2022/03/06 02:06:08;;;;;;;;;;;;;;;0.33;64.71;100292.50;6244391;23;19915;-85
2022/03/06 02:08:33;;;;;;;;;;;;;;;0.37;64.86;100293.34;6243514;23;19916;-87
2022/03/06 02:10:59;;;;;;;;;;;;;;;0.35;64.71;100284.75;6217515;23;20257;-87
2022/03/06 02:13:24;;;;;;;;;;;;;;;0.31;65.06;100285.84;6243912;23;19912;-86
2022/03/06 02:15:50;;;;;;;;;;;;;;;0.11;65.16;100274.19;6217588;23;20408;-85
2022/03/06 02:18:15;;;;;;;;;;;;;;;0.23;65.26;100289.59;6244068;23;19915;-85
2022/03/06 02:20:40;;;;;;;;;;;;;;;0.18;66.27;100284.44;6244435;23;20387;-85
2022/03/06 02:23:06;;;;;;;;;;;;;;;0.19;65.55;100275.09;6244038;23;19998;-86
2022/03/06 02:25:32;;;;;;;;;;;;;;;0.21;65.42;100272.78;6244387;23;19915;-85
2022/03/06 02:27:59;;;;;;;;;;;;;;;0.20;65.48;100282.94;6216508;23;19916;-85
2022/03/06 02:30:27;;;;;;;;;;;;;;;0.17;65.97;100282.84;6244498;23;20352;-85
2022/03/06 02:32:52;;;;;;;;;;;;;;;0.16;65.71;100281.28;6216426;23;19968;-85
2022/03/06 02:35:18;;;;;;;;;;;;;;;0.05;66.15;100261.97;6244240;23;19960;-85
2022/03/06 02:37:43;;;;;;;;;;;;;;;-0.04;66.41;100275.81;6243601;23;19916;-86
2022/03/06 02:40:09;;;;;;;;;;;;;;;-0.05;66.80;100277.00;6242974;23;19918;-85
2022/03/06 02:42:39;;;;;;;;;;;;;;;-0.06;66.87;100278.13;6243578;23;19986;-85
2022/03/06 02:45:06;;;;;;;;;;;;;;;-0.07;66.45;100279.28;6216740;23;19912;-86
2022/03/06 02:47:32;;;;;;;;;;;;;;;-0.02;66.73;100276.28;6242459;23;20429;-85
2022/03/06 02:49:57;;;;;;;;;;;;;;;-0.04;66.57;100277.78;6244111;23;19954;-86
2022/03/06 02:52:22;;;;;;;;;;;;;;;-0.02;66.11;100279.00;6243854;23;19986;-86
2022/03/06 02:54:48;;;;;;;;;;;;;;;-0.02;66.25;100281.72;6243554;23;19916;-86
2022/03/06 02:57:13;;;;;;;;;;;;;;;-0.01;66.12;100283.31;6216782;23;20013;-87
2022/03/06 02:59:39;;;;;;;;;;;;;;;0.06;66.02;100281.84;6244344;23;19994;-86
2022/03/06 03:02:05;;;;;;;;;;;;;;;0.08;66.10;100285.03;6243654;23;20333;-85
